Logo AVAMET
Benvolgut visitant, si us plau, ingressa Recuperar contrasenya
AVAMET paisatges

Inforatge Castelló de la Plana Palau Festa

Dades diàries. Acumulats / Últims 30 dies disponibles

Data Temperatura (°C) Humitat rel. (%) Pressió rel. (hPa) Vent (km/h) Precipitació
Mínima Mitjana Màxima Amplitud
tèrmica
Mínima Mitjana Màxima Mínima Mitjana Màxima Predom. Mitjana Ràfega
màxima
Total
(mm)
Índex-n
Mínima Mitjana Màxima Mínima Mitjana Màxima n
0 a 1
P0 max
mm 5'
Dades mensuals acumulades fins l'últim dia disponible
04/2020 8,6 10,4 11,6 13,2 15,3 16,9 18,9 10,3 49 77 91 1.009 1.015 1.021   7,9 43,5 107,2
Dades anuals acumulades fins l'últim dia disponible
2020 4,3 9,8 15,6 13,4 10,4 17,4 25,8 21,5 0 69 94 0 976 1.035   6,7 88,5 318,6
Últims 30 dies disponibles
04-04-2020 8,6     13,2     16,9 8,3 66 76 82 1.018 1.020 1.021 E 5,6 24,1 0,0
03-04-2020 10,9     13,4     16,4 5,5 49 72 86 1.014 1.016 1.019 W 6,0 32,2 0,0
02-04-2020 10,4     12,3     15,3 4,9 70 79 85 1.011 1.012 1.015 ENE 6,8 35,4 0,6
01-04-2020 11,6     13,9     18,9 7,3 59 80 91 1.009 1.011 1.013 NNE 13,0 43,5 106,6 0,28 3,00
31-03-2020 7,6     10,2     12,8 5,2 80 86 91 1.010 1.011 1.014 S 10,2 41,8 73,2 0,42 1,90
30-03-2020 8,1     11,6     15,8 7,7 53 64 79 1.012 1.014 1.015 N 7,4 29,0 2,2
29-03-2020 10,3     15,3     20,9 10,6 37 58 72 1.013 1.015 1.019 SSE 10,6 41,8 0,0
28-03-2020 7,2     12,3     16,7 9,5 48 63 76 1.017 1.018 1.019 W 6,8 27,4 0,0
27-03-2020 7,8     10,8     13,5 5,7 60 69 77 1.013 1.014 1.017 N 8,2 30,6 0,0
26-03-2020 6,4     10,1     15,7 9,3 39 71 88 1.008 1.010 1.014 NNE 8,7 48,3 0,0
25-03-2020 8,3     9,9     11,7 3,4 69 79 87 1.014 1.017 1.019 NNE 6,4 25,7 4,4 0,42 0,40
24-03-2020 10,3     12,9     14,4 4,1 71 80 89 1.017 1.018 1.019 NNE 18,2 51,5 7,8 0,30 0,60
23-03-2020 12,3     14,1     16,1 3,8 73 83 88 1.015 1.017 1.019 NE 10,1 35,4 5,8 0,42 0,60
22-03-2020 11,2     13,2     15,2 4,0 71 80 86 1.012 1.013 1.016 NE 5,1 25,7 5,4 0,24 0,60
21-03-2020 10,8     13,2     14,7 3,9 71 78 81 1.012 1.015 1.018 ENE 5,3 22,5 0,0
20-03-2020 12,3     13,4     15,4 3,1 73 79 84 1.018 1.019 1.021 ENE 9,5 32,2 0,0
19-03-2020 10,8     13,1     15,7 4,9 71 81 86 1.021 1.023 1.026 ENE 6,3 27,4 0,0
18-03-2020 12,2     13,9     15,2 3,0 73 79 86 1.025 1.027 1.029 ENE 7,7 32,2 0,0
17-03-2020 12,2     13,9     15,0 2,8 78 88 94 1.019 1.025 1.029 NNE 11,4 41,8 19,4 0,35 0,80
16-03-2020 12,6     13,9     14,9 2,3 82 89 93 1.011 1.014 1.020 NE 8,9 29,0 11,4 0,36 0,80
15-03-2020 11,5     14,2     17,2 5,7 68 81 88 1.015 1.018 1.021 SSE 5,3 33,8 0,0
14-03-2020 11,1     14,4     17,3 6,2 58 75 85 1.019 1.020 1.022 E 4,2 22,5 0,0
13-03-2020 9,9     14,6     17,9 8,0 64 75 91 1.018 1.020 1.022 ENE 6,0 29,0 0,0
12-03-2020 12,3     14,5     19,3 7,0 67 80 89 1.018 1.020 1.022 ENE 4,0 17,7 0,0
11-03-2020 10,8     15,6     20,1 9,3 52 68 82 1.022 1.023 1.024 E 4,3 17,7 0,0
10-03-2020 10,7     14,3     15,9 5,2 45 66 78 1.023 1.024 1.026 SSE 5,6 27,4 0,0
09-03-2020 12,5     16,0     19,1 6,6 44 53 73 1.020 1.021 1.023 SSE 6,4 32,2 0,0
08-03-2020 10,4     14,5     18,6 8,2 42 58 72 1.021 1.022 1.024 W 6,1 24,1 0,0
07-03-2020 7,8     13,7     19,0 11,2 36 49 65 1.020 1.022 1.024 SSE 7,4 38,6 0,0
06-03-2020 12,6     14,8     17,9 5,3 27 43 60 1.011 1.014 1.020 NW 11,7 57,9 0,0
Últims 13 mesos disponibles
03/2020 6,4 10,7 15,6 14,1 11,7 17,4 24,8 18,4 43 69 89 975 1.016 1.027 ENE 8,5 88,5 129,6
02/2020 7,4 10,5 13,9 14,1 14,1 18,4 25,7 18,3 52 73 83 1.017 1.026 1.033 W 4,4 35,4 0,0
01/2020 4,3 8,2 13,2 11,7 10,4 16,0 22,5 18,2 61 73 86 1.014 1.018 1.027 W 6,4 75,6 81,8
12/2019 6,7 10,9 17,7 14,2 13,4 17,9 25,8 19,1 45 70 85 1.014 1.014 1.014 W 6,8 72,4 157,0
11/2019 7,8 12,0 20,2 15,8 15,3 20,0 27,7 19,9 39 54 76 1.014 1.014 1.014 W 8,0 61,2 4,8
10/2019 10,8 16,9 22,1 20,3 17,3 24,0 28,2 17,4 48 70 82 1.014 1.014 1.014 S 6,0 53,1 19,8
09/2019 15,3 20,7 23,9 23,7 21,9 26,8 30,6 15,3 50 70 82 1.014 1.015 1.016 SE 7,7 56,3 65,6
08/2019 18,5 22,7 26,4 25,9 25,7 29,0 31,9 13,4 54 72 79 1.016 1.016 1.016 S 6,7 61,1 17,8
07/2019 21,6 23,1 25,3 26,5 27,1 29,4 33,2 11,6 49 67 78 1.016 1.016 1.016 SE 7,1 51,9 8,6
06/2019 12,8 18,9 23,1 22,4 20,7 25,8 35,9 23,1 41 64 79 1.016 1.016 1.016 S 8,1 59,6 0,0
05/2019 10,4 14,6 17,7 18,0 17,3 21,5 28,2 17,8 50 67 81 1.016 1.016 1.016 SE 7,8 53,7 13,0
04/2019 7,8 12,1 14,5 15,5 15,5 19,3 26,4 18,6 44 63 85 1.016 1.016 1.016 SSO 10,6 66,7 44,0
03/2019 7,7 10,4 13,2 14,5 13,4 18,8 25,2 17,5 41 59 78 1.016 1.016 1.016 S 7,0 53,7 10,4
Tots els anys disponibles
2019 2,3 14,8 26,4 18,4 12,7 22,2 35,9 33,6 28 65 85 1.014 1.016 1.016 S 7,4 79,6 341,6
Temperatura (°C)
Humitat relativa (%)
Velocitat del vent i ràfega màxima (km/h)
Direcció del vent (°)
Pressió (hPa)
Precipitació (mm)
Nota sobre les dades: s'avisa a l'usuari de la provisionalitat i no oficialitat d'aquestes dades
Logo AVAMET blanc
Web allotjada a Sollutia
Llicència de Creative CommonsLa web d'AVAMET i els seus continguts estan subjectes a una llicència de
Reconeixement - No Comercial - Compartir igual
Últimes estacions:  Altea - Com. Regants (Soci), Almoines (Inforatge), Beniparrell (Inforatge), Albal (Inforatge), Almussafes - Parc Industrial (Inforatge), La Vilavella (Soci), la Serratella (soci) - - -